Time;durP1;ratioP1;P1;durP2;ratioP2;P2;SDS_P1;SDS_P2;PMS_P1;PMS_P2;Temp;Humidity;BMP_temperature;BMP_pressure;BME280_temperature;BME280_humidity;BME280_pressure;Samples;Min_cycle;Max_cycle;Signal;HPM_P1;HPM_P2
2022/11/07 00:01:30;;;;;;;5.32;3.45;;;;;;;;;;4935039;29;20050;-65
2022/11/07 00:04:01;;;;;;;5.85;3.25;;;;;;;;;;4936040;29;20040;-65
2022/11/07 00:06:28;;;;;;;5.82;3.58;;;;;;;;;;4919942;29;20032;-65
2022/11/07 00:08:55;;;;;;;5.53;3.28;;;;;;;;;;4921553;29;20103;-65
2022/11/07 00:11:21;;;;;;;7.65;3.53;;;;;;;;;;4931939;29;20047;-66
2022/11/07 00:13:48;;;;;;;6.28;3.20;;;;;;;;;;4941941;29;20052;-65
2022/11/07 00:16:15;;;;;;;5.70;3.30;;;;;;;;;;4917400;29;20404;-66
2022/11/07 00:18:42;;;;;;;7.07;3.63;;;;;;;;;;4916855;29;20052;-66
2022/11/07 00:21:09;;;;;;;5.53;3.15;;;;;;;;;;4931344;29;20040;-66
2022/11/07 00:23:38;;;;;;;6.65;3.53;;;;;;;;;;4916350;29;20055;-66
2022/11/07 00:26:05;;;;;;;4.80;3.38;;;;;;;;;;4916527;29;20052;-65
2022/11/07 00:28:33;;;;;;;5.80;3.50;;;;;;;;;;4931201;29;20047;-65
2022/11/07 00:30:59;;;;;;;6.63;3.30;;;;;;;;;;4916627;29;20051;-66
2022/11/07 00:33:26;;;;;;;5.45;3.25;;;;;;;;;;4915888;29;20461;-66
2022/11/07 00:35:52;;;;;;;7.43;3.60;;;;;;;;;;4916481;29;20059;-65
2022/11/07 00:38:19;;;;;;;4.07;2.83;;;;;;;;;;4931003;29;20048;-65
2022/11/07 00:40:56;;;;;;;7.53;3.22;;;;;;;;;;4916572;29;20490;-65
2022/11/07 00:43:22;;;;;;;3.80;2.60;;;;;;;;;;4914657;29;20067;-65
2022/11/07 00:45:49;;;;;;;6.55;3.05;;;;;;;;;;4930803;29;20084;-65
2022/11/07 00:48:16;;;;;;;8.65;3.47;;;;;;;;;;4898945;29;20138;-65
2022/11/07 00:50:42;;;;;;;9.80;3.50;;;;;;;;;;4916423;29;20063;-65
2022/11/07 00:53:09;;;;;;;7.18;3.10;;;;;;;;;;4930549;29;20047;-65
2022/11/07 00:55:38;;;;;;;6.68;3.25;;;;;;;;;;4916193;29;20048;-65
2022/11/07 00:58:04;;;;;;;7.10;2.97;;;;;;;;;;4931521;29;20166;-66
2022/11/07 01:00:37;;;;;;;7.65;3.05;;;;;;;;;;4916183;29;20104;-67
2022/11/07 01:05:56;;;;;;;6.60;3.08;;;;;;;;;;4916019;29;20052;-65
2022/11/07 01:08:22;;;;;;;7.35;3.40;;;;;;;;;;4930790;29;20052;-65
2022/11/07 01:10:49;;;;;;;6.40;2.58;;;;;;;;;;4916154;29;20052;-65
2022/11/07 01:13:15;;;;;;;6.18;2.97;;;;;;;;;;4929906;29;20103;-65
2022/11/07 01:15:42;;;;;;;7.13;2.92;;;;;;;;;;4930429;29;20063;-65
2022/11/07 01:18:09;;;;;;;8.68;3.05;;;;;;;;;;4915864;29;20569;-65
2022/11/07 01:20:36;;;;;;;8.40;3.05;;;;;;;;;;4915921;29;20063;-65
2022/11/07 01:23:02;;;;;;;5.28;2.70;;;;;;;;;;4914395;29;20056;-65
2022/11/07 01:25:28;;;;;;;7.15;2.85;;;;;;;;;;4930691;29;20048;-65
2022/11/07 01:27:55;;;;;;;6.00;2.83;;;;;;;;;;4915847;29;20055;-65
2022/11/07 01:30:21;;;;;;;5.28;2.63;;;;;;;;;;4916317;29;20056;-64
2022/11/07 01:32:47;;;;;;;8.32;2.92;;;;;;;;;;4914323;29;20660;-65
2022/11/07 01:35:15;;;;;;;7.60;2.50;;;;;;;;;;4916195;29;20088;-65
2022/11/07 01:37:41;;;;;;;7.28;2.40;;;;;;;;;;4930621;29;20044;-65
2022/11/07 01:40:08;;;;;;;4.93;2.70;;;;;;;;;;4916099;29;20058;-65
2022/11/07 01:42:34;;;;;;;4.53;2.65;;;;;;;;;;4913946;29;20048;-65
2022/11/07 01:45:01;;;;;;;5.13;2.58;;;;;;;;;;4915769;29;20048;-65
2022/11/07 01:47:30;;;;;;;4.82;2.60;;;;;;;;;;4915735;29;20135;-64
2022/11/07 01:49:57;;;;;;;8.13;2.85;;;;;;;;;;4915996;29;20056;-65
2022/11/07 01:52:30;;;;;;;7.05;2.55;;;;;;;;;;4914080;29;20111;-65
2022/11/07 01:55:11;;;;;;;6.60;2.83;;;;;;;;;;4913981;29;20456;-65
2022/11/07 01:57:40;;;;;;;4.40;2.50;;;;;;;;;;4915720;29;20048;-65
2022/11/07 02:00:07;;;;;;;8.38;2.75;;;;;;;;;;4933608;29;20382;-65
2022/11/07 02:02:34;;;;;;;5.45;2.95;;;;;;;;;;4918622;29;20048;-65
2022/11/07 02:05:02;;;;;;;4.03;2.40;;;;;;;;;;4917975;29;20048;-65
2022/11/07 02:07:28;;;;;;;9.40;2.63;;;;;;;;;;4933674;29;20048;-65
2022/11/07 02:09:55;;;;;;;4.43;2.83;;;;;;;;;;4917801;29;20059;-65
2022/11/07 02:12:23;;;;;;;5.43;2.70;;;;;;;;;;4932915;29;20090;-65
2022/11/07 02:14:49;;;;;;;7.53;2.90;;;;;;;;;;4917788;29;20052;-65
2022/11/07 02:17:16;;;;;;;6.57;2.78;;;;;;;;;;4918896;29;20048;-65
2022/11/07 02:19:44;;;;;;;6.25;2.35;;;;;;;;;;4918836;29;20126;-65
2022/11/07 02:22:16;;;;;;;6.18;2.38;;;;;;;;;;4933030;29;20182;-64
2022/11/07 02:24:44;;;;;;;7.05;2.90;;;;;;;;;;4918594;29;20465;-65
2022/11/07 02:27:15;;;;;;;10.43;3.55;;;;;;;;;;4917418;29;20048;-65
2022/11/07 02:29:43;;;;;;;4.75;2.72;;;;;;;;;;4917632;29;20076;-65
2022/11/07 02:32:11;;;;;;;5.47;2.50;;;;;;;;;;4918087;29;20052;-65
2022/11/07 02:34:37;;;;;;;6.32;2.35;;;;;;;;;;4932782;29;20092;-65
2022/11/07 02:37:06;;;;;;;4.45;2.47;;;;;;;;;;4932900;29;20417;-65
2022/11/07 02:39:33;;;;;;;6.35;2.75;;;;;;;;;;4901627;29;20052;-65
2022/11/07 02:42:00;;;;;;;3.95;2.03;;;;;;;;;;4917948;29;20502;-65
2022/11/07 02:44:28;;;;;;;4.18;2.38;;;;;;;;;;4918532;29;20044;-65
2022/11/07 02:46:55;;;;;;;7.65;3.08;;;;;;;;;;4934938;29;20047;-65
2022/11/07 02:49:21;;;;;;;3.33;2.00;;;;;;;;;;4925991;29;20523;-65
2022/11/07 02:51:48;;;;;;;5.07;2.20;;;;;;;;;;4925776;29;20048;-65
2022/11/07 02:54:14;;;;;;;5.28;2.33;;;;;;;;;;4909173;29;20052;-65
2022/11/07 02:56:40;;;;;;;6.90;2.40;;;;;;;;;;4923929;29;20048;-65
2022/11/07 02:59:07;;;;;;;10.98;2.60;;;;;;;;;;4937053;29;20059;-65
2022/11/07 03:01:33;;;;;;;6.78;2.08;;;;;;;;;;4923682;29;20048;-65
2022/11/07 03:04:00;;;;;;;5.43;2.60;;;;;;;;;;4922933;29;20064;-65
2022/11/07 03:06:26;;;;;;;3.75;2.00;;;;;;;;;;4921768;29;20131;-65
2022/11/07 03:08:53;;;;;;;8.35;2.25;;;;;;;;;;4918966;29;20044;-65
2022/11/07 03:11:19;;;;;;;7.97;2.65;;;;;;;;;;4915768;29;20052;-65
2022/11/07 03:13:46;;;;;;;6.55;2.15;;;;;;;;;;4931841;29;20060;-65
2022/11/07 03:16:14;;;;;;;7.43;2.60;;;;;;;;;;4917693;29;20040;-65
2022/11/07 03:18:40;;;;;;;7.05;2.53;;;;;;;;;;4932317;29;20496;-65
2022/11/07 03:21:06;;;;;;;4.45;2.30;;;;;;;;;;4917547;29;20099;-65
2022/11/07 03:23:34;;;;;;;5.13;2.47;;;;;;;;;;4917154;29;20056;-66
2022/11/07 03:26:01;;;;;;;4.32;1.80;;;;;;;;;;4916198;29;20048;-65
2022/11/07 03:28:27;;;;;;;6.03;2.20;;;;;;;;;;4932011;29;20089;-65
2022/11/07 03:30:54;;;;;;;7.45;2.38;;;;;;;;;;4917634;29;20044;-65
2022/11/07 03:33:20;;;;;;;5.70;2.15;;;;;;;;;;4931565;29;20040;-65
2022/11/07 03:35:47;;;;;;;5.80;2.22;;;;;;;;;;4916036;29;20048;-65
2022/11/07 03:38:13;;;;;;;7.95;2.70;;;;;;;;;;4931773;29;20044;-66
2022/11/07 03:40:40;;;;;;;5.38;2.08;;;;;;;;;;4917295;29;20397;-65
2022/11/07 03:43:06;;;;;;;9.27;2.35;;;;;;;;;;4931172;29;20044;-65
2022/11/07 03:45:33;;;;;;;6.18;2.25;;;;;;;;;;4915842;29;20047;-65
2022/11/07 03:47:59;;;;;;;6.65;2.40;;;;;;;;;;4916996;29;20044;-65
2022/11/07 03:50:25;;;;;;;4.25;2.05;;;;;;;;;;4931738;29;20044;-65
2022/11/07 03:52:52;;;;;;;4.18;2.40;;;;;;;;;;4931114;29;20497;-65
2022/11/07 03:55:18;;;;;;;7.47;2.55;;;;;;;;;;4917236;29;20408;-65
2022/11/07 03:57:45;;;;;;;6.93;1.92;;;;;;;;;;4917130;29;20052;-65
2022/11/07 04:00:12;;;;;;;4.88;2.47;;;;;;;;;;4931489;29;20040;-65
2022/11/07 04:02:39;;;;;;;5.25;1.92;;;;;;;;;;4916368;29;20040;-65
2022/11/07 04:05:06;;;;;;;8.55;2.50;;;;;;;;;;4915956;29;20281;-64
2022/11/07 04:07:32;;;;;;;4.93;2.40;;;;;;;;;;4929293;29;20096;-65
2022/11/07 04:09:59;;;;;;;7.20;2.70;;;;;;;;;;4931877;29;20545;-64
2022/11/07 04:17:55;;;;;;;7.20;2.10;;;;;;;;;;4917220;29;20044;-65
2022/11/07 04:20:21;;;;;;;8.18;2.22;;;;;;;;;;4932284;29;20095;-65
2022/11/07 04:22:48;;;;;;;7.63;2.20;;;;;;;;;;4916814;29;20460;-65
2022/11/07 04:25:14;;;;;;;5.50;2.10;;;;;;;;;;4917221;29;20055;-65
2022/11/07 04:27:41;;;;;;;4.70;2.72;;;;;;;;;;4917208;29;20516;-64
2022/11/07 04:30:17;;;;;;;7.22;2.20;;;;;;;;;;4915592;29;20111;-64
2022/11/07 04:32:48;;;;;;;7.55;2.30;;;;;;;;;;4916502;29;20465;-65
2022/11/07 04:35:16;;;;;;;5.40;2.40;;;;;;;;;;4916624;29;20528;-66
2022/11/07 04:37:42;;;;;;;7.38;2.20;;;;;;;;;;4931321;29;20051;-65
2022/11/07 04:40:10;;;;;;;7.80;2.45;;;;;;;;;;4916694;29;20319;-65
2022/11/07 04:42:37;;;;;;;7.47;2.00;;;;;;;;;;4930821;29;20051;-65
2022/11/07 04:45:03;;;;;;;5.13;2.10;;;;;;;;;;4916456;29;20043;-65
2022/11/07 04:47:30;;;;;;;4.70;2.08;;;;;;;;;;4916305;29;20048;-65
2022/11/07 04:50:00;;;;;;;5.65;2.08;;;;;;;;;;4930581;29;20048;-66
2022/11/07 04:52:27;;;;;;;4.63;1.80;;;;;;;;;;4930264;29;20421;-66
2022/11/07 04:54:53;;;;;;;9.02;2.38;;;;;;;;;;4915934;29;20052;-66
2022/11/07 04:57:20;;;;;;;5.93;2.28;;;;;;;;;;4916427;29;20394;-66
2022/11/07 04:59:46;;;;;;;6.15;2.10;;;;;;;;;;4915970;29;20401;-63
2022/11/07 05:02:12;;;;;;;7.22;2.40;;;;;;;;;;5309063;23;20048;-61
2022/11/07 05:04:39;;;;;;;8.20;2.38;;;;;;;;;;4930514;29;20052;-62
2022/11/07 05:07:06;;;;;;;9.02;2.45;;;;;;;;;;4915868;29;20523;-61
2022/11/07 05:09:33;;;;;;;5.97;2.30;;;;;;;;;;4915733;29;20051;-62
2022/11/07 05:11:59;;;;;;;4.93;2.45;;;;;;;;;;4908484;29;20080;-62
2022/11/07 05:14:26;;;;;;;9.38;2.67;;;;;;;;;;4897013;29;20104;-63
2022/11/07 05:16:53;;;;;;;10.90;2.60;;;;;;;;;;4896942;29;20037;-63
2022/11/07 05:19:19;;;;;;;5.82;2.38;;;;;;;;;;4911717;29;20059;-62
2022/11/07 05:21:46;;;;;;;8.77;2.90;;;;;;;;;;4896785;29;20041;-61
2022/11/07 05:24:13;;;;;;;10.90;2.42;;;;;;;;;;4895915;29;20045;-62
2022/11/07 05:26:39;;;;;;;5.72;2.60;;;;;;;;;;4896790;29;20059;-62
2022/11/07 05:29:07;;;;;;;13.10;2.53;;;;;;;;;;4895532;29;20048;-62
2022/11/07 05:31:34;;;;;;;8.70;2.67;;;;;;;;;;4896643;29;20045;-62
2022/11/07 05:34:00;;;;;;;7.90;2.40;;;;;;;;;;4897708;29;20126;-61
2022/11/07 05:36:27;;;;;;;7.78;2.50;;;;;;;;;;4899323;29;20053;-61
2022/11/07 05:38:53;;;;;;;6.93;2.70;;;;;;;;;;4900597;29;20549;-61
2022/11/07 05:41:20;;;;;;;9.00;3.28;;;;;;;;;;4899122;29;20100;-61
2022/11/07 05:43:46;;;;;;;7.80;2.80;;;;;;;;;;4898979;29;20051;-61
2022/11/07 05:46:13;;;;;;;6.15;2.05;;;;;;;;;;4900433;29;20048;-62
2022/11/07 05:48:39;;;;;;;5.53;2.55;;;;;;;;;;4900348;29;20060;-64
2022/11/07 05:51:07;;;;;;;7.57;2.35;;;;;;;;;;4900639;29;20083;-62
2022/11/07 05:53:34;;;;;;;8.35;2.30;;;;;;;;;;4904587;29;20068;-62
2022/11/07 05:56:00;;;;;;;5.57;2.15;;;;;;;;;;4919981;29;20115;-63
2022/11/07 05:58:27;;;;;;;7.15;2.42;;;;;;;;;;4905191;29;20053;-63
2022/11/07 06:00:53;;;;;;;9.80;2.72;;;;;;;;;;4904005;29;20048;-62
2022/11/07 06:03:20;;;;;;;8.02;2.10;;;;;;;;;;4902856;29;20052;-62
2022/11/07 06:05:46;;;;;;;9.60;2.63;;;;;;;;;;4900704;29;20052;-61
2022/11/07 06:08:13;;;;;;;8.50;2.70;;;;;;;;;;4915402;29;20053;-62
2022/11/07 06:10:41;;;;;;;6.40;2.20;;;;;;;;;;4899983;29;20059;-62
2022/11/07 06:13:09;;;;;;;8.57;3.22;;;;;;;;;;4900234;29;20068;-63
2022/11/07 06:15:36;;;;;;;7.72;2.63;;;;;;;;;;4899648;29;20040;-63
2022/11/07 06:18:04;;;;;;;10.98;1.90;;;;;;;;;;4899567;29;20048;-63
2022/11/07 06:20:32;;;;;;;8.95;2.40;;;;;;;;;;4899329;29;20045;-63
2022/11/07 06:22:59;;;;;;;5.93;2.72;;;;;;;;;;4899789;29;20048;-62
2022/11/07 06:25:26;;;;;;;8.20;2.65;;;;;;;;;;4914291;29;20466;-62
2022/11/07 06:27:52;;;;;;;9.18;2.17;;;;;;;;;;4899811;29;20089;-63
2022/11/07 06:30:19;;;;;;;8.10;2.58;;;;;;;;;;4898493;29;20108;-62
2022/11/07 06:32:45;;;;;;;11.80;2.38;;;;;;;;;;4898915;29;20045;-62
2022/11/07 06:35:12;;;;;;;8.00;3.08;;;;;;;;;;4898237;29;20036;-62
2022/11/07 06:37:38;;;;;;;8.85;2.55;;;;;;;;;;4899433;29;20407;-62
2022/11/07 06:40:05;;;;;;;12.02;2.45;;;;;;;;;;4899616;29;20075;-63
2022/11/07 06:42:31;;;;;;;7.03;2.17;;;;;;;;;;4898695;29;20040;-63
2022/11/07 06:44:58;;;;;;;7.97;2.45;;;;;;;;;;4897019;29;20402;-63
2022/11/07 06:47:24;;;;;;;10.10;3.03;;;;;;;;;;4899205;29;20045;-62
2022/11/07 06:49:50;;;;;;;5.90;2.63;;;;;;;;;;4899150;29;20088;-63
2022/11/07 06:52:17;;;;;;;6.28;2.13;;;;;;;;;;4897491;29;20064;-61
2022/11/07 06:54:43;;;;;;;6.70;2.85;;;;;;;;;;4898695;29;20521;-62
2022/11/07 06:57:10;;;;;;;7.30;2.70;;;;;;;;;;4897726;29;20075;-62
2022/11/07 06:59:36;;;;;;;7.07;2.47;;;;;;;;;;4913544;29;20048;-62
2022/11/07 07:02:02;;;;;;;4.55;1.98;;;;;;;;;;4898293;29;20048;-62
2022/11/07 07:04:29;;;;;;;8.85;2.42;;;;;;;;;;4897622;29;20049;-63
2022/11/07 07:06:55;;;;;;;7.47;2.28;;;;;;;;;;4898912;29;20052;-62
2022/11/07 07:09:22;;;;;;;5.95;1.90;;;;;;;;;;4898852;29;20100;-62
2022/11/07 07:11:48;;;;;;;6.47;2.08;;;;;;;;;;4898655;29;20056;-62
2022/11/07 07:14:14;;;;;;;6.93;2.28;;;;;;;;;;4898741;29;20088;-62
2022/11/07 07:16:41;;;;;;;8.27;2.03;;;;;;;;;;4897547;29;20048;-62
2022/11/07 07:19:07;;;;;;;7.63;2.53;;;;;;;;;;4897935;29;20045;-62
2022/11/07 07:21:33;;;;;;;9.10;2.55;;;;;;;;;;4898918;29;20100;-61
2022/11/07 07:24:00;;;;;;;5.47;2.65;;;;;;;;;;4898579;29;20112;-62
2022/11/07 07:26:27;;;;;;;6.65;2.33;;;;;;;;;;4898720;29;20468;-62
2022/11/07 07:28:53;;;;;;;5.45;2.00;;;;;;;;;;4898892;29;20048;-62
2022/11/07 07:31:24;;;;;;;8.05;2.28;;;;;;;;;;4898901;29;20052;-63
2022/11/07 07:33:50;;;;;;;6.55;1.90;;;;;;;;;;4898266;29;20068;-62
2022/11/07 07:36:17;;;;;;;4.90;1.77;;;;;;;;;;4898907;29;20048;-62
2022/11/07 07:38:46;;;;;;;4.95;2.00;;;;;;;;;;4913136;29;20600;-62
2022/11/07 07:41:13;;;;;;;5.95;1.92;;;;;;;;;;4897129;29;20044;-62
2022/11/07 07:43:39;;;;;;;9.70;2.08;;;;;;;;;;4897784;29;20049;-62
2022/11/07 07:46:06;;;;;;;5.65;1.75;;;;;;;;;;4898385;29;20096;-62
2022/11/07 07:48:33;;;;;;;10.88;2.17;;;;;;;;;;4898427;29;20458;-62
2022/11/07 07:50:59;;;;;;;8.38;2.10;;;;;;;;;;4898411;29;20446;-63
2022/11/07 07:53:26;;;;;;;6.15;2.20;;;;;;;;;;4896426;29;20052;-62
2022/11/07 07:55:56;;;;;;;7.07;2.30;;;;;;;;;;4896319;29;20141;-62
2022/11/07 07:58:24;;;;;;;8.10;2.15;;;;;;;;;;4898096;29;20048;-62
2022/11/07 08:00:51;;;;;;;8.20;2.10;;;;;;;;;;4897965;29;20049;-62
2022/11/07 08:03:17;;;;;;;10.80;2.35;;;;;;;;;;4897619;29;20409;-62
2022/11/07 08:05:51;;;;;;;12.18;3.30;;;;;;;;;;4897863;29;20040;-62
2022/11/07 08:08:17;;;;;;;9.32;2.72;;;;;;;;;;4897909;29;20052;-61
2022/11/07 08:10:44;;;;;;;8.55;2.40;;;;;;;;;;4897671;29;20048;-62
2022/11/07 08:13:11;;;;;;;5.38;1.92;;;;;;;;;;4896183;29;20441;-61
2022/11/07 08:15:37;;;;;;;5.18;2.10;;;;;;;;;;4897775;29;20044;-62
2022/11/07 08:18:04;;;;;;;8.98;2.70;;;;;;;;;;4897722;29;20100;-61
2022/11/07 08:20:30;;;;;;;10.93;2.13;;;;;;;;;;4897776;29;20096;-61
2022/11/07 08:23:00;;;;;;;13.27;3.20;;;;;;;;;;4911491;29;20045;-61
2022/11/07 08:25:27;;;;;;;9.65;3.47;;;;;;;;;;4911994;29;20076;-60
2022/11/07 08:27:53;;;;;;;13.63;4.32;;;;;;;;;;4896180;29;20076;-61
2022/11/07 08:30:20;;;;;;;9.90;3.25;;;;;;;;;;4897743;29;20048;-61
2022/11/07 08:32:47;;;;;;;9.68;2.88;;;;;;;;;;4897140;29;20053;-61
2022/11/07 08:35:13;;;;;;;6.68;2.20;;;;;;;;;;4897587;29;20044;-60
2022/11/07 08:37:40;;;;;;;9.23;2.75;;;;;;;;;;4897931;29;20080;-62
2022/11/07 08:40:07;;;;;;;8.75;2.58;;;;;;;;;;4897666;29;20048;-62
2022/11/07 08:42:34;;;;;;;11.98;2.70;;;;;;;;;;4895752;29;20501;-63
2022/11/07 08:45:00;;;;;;;8.27;2.17;;;;;;;;;;4896203;29;20100;-62
2022/11/07 08:47:27;;;;;;;7.68;2.55;;;;;;;;;;4897957;29;20064;-62
2022/11/07 08:49:53;;;;;;;12.20;2.40;;;;;;;;;;4896624;29;20048;-62
2022/11/07 08:52:20;;;;;;;6.95;2.00;;;;;;;;;;4896437;29;20255;-62
2022/11/07 08:54:46;;;;;;;7.65;2.30;;;;;;;;;;4896302;29;20100;-61
2022/11/07 08:57:13;;;;;;;10.63;3.63;;;;;;;;;;4896050;29;20502;-62
2022/11/07 08:59:39;;;;;;;10.43;2.60;;;;;;;;;;4896294;29;20409;-63
2022/11/07 09:02:05;;;;;;;9.20;2.40;;;;;;;;;;4896891;29;20045;-63
2022/11/07 09:04:55;;;;;;;8.40;2.47;;;;;;;;;;4897142;29;20048;-63
2022/11/07 09:07:21;;;;;;;7.97;2.38;;;;;;;;;;4896651;29;20485;-62
2022/11/07 09:09:47;;;;;;;9.85;2.35;;;;;;;;;;4897315;29;20045;-63
2022/11/07 09:12:14;;;;;;;7.07;1.98;;;;;;;;;;4896916;29;20520;-63
2022/11/07 09:14:40;;;;;;;6.47;2.15;;;;;;;;;;4897168;29;20076;-63
2022/11/07 09:17:07;;;;;;;6.88;1.88;;;;;;;;;;4897263;29;20494;-62
2022/11/07 09:19:33;;;;;;;8.30;2.42;;;;;;;;;;4897040;29;20508;-63
2022/11/07 09:22:00;;;;;;;5.43;2.65;;;;;;;;;;4896744;29;20048;-63
2022/11/07 09:24:26;;;;;;;5.78;2.35;;;;;;;;;;4895937;29;20061;-63
2022/11/07 09:26:52;;;;;;;5.43;2.05;;;;;;;;;;4897107;29;20113;-63
2022/11/07 09:29:19;;;;;;;10.63;3.53;;;;;;;;;;4897099;29;20049;-63
2022/11/07 09:31:45;;;;;;;12.13;3.45;;;;;;;;;;4896342;29;20501;-62
2022/11/07 09:34:12;;;;;;;6.40;2.55;;;;;;;;;;4896625;29;20092;-63
2022/11/07 09:36:38;;;;;;;8.52;2.08;;;;;;;;;;4896864;29;20386;-63
2022/11/07 09:39:05;;;;;;;9.65;2.20;;;;;;;;;;4895533;29;20045;-63
2022/11/07 09:41:31;;;;;;;7.60;2.35;;;;;;;;;;4896907;29;20192;-63
2022/11/07 09:44:05;;;;;;;8.10;2.85;;;;;;;;;;4896552;29;20045;-62
2022/11/07 09:46:57;;;;;;;6.47;2.28;;;;;;;;;;4897262;29;20108;-63
2022/11/07 09:49:24;;;;;;;6.97;2.47;;;;;;;;;;4881707;29;20071;-61
2022/11/07 09:52:02;;;;;;;8.77;1.88;;;;;;;;;;4910553;29;20549;-62
2022/11/07 09:54:32;;;;;;;8.95;2.33;;;;;;;;;;4895577;29;20083;-62
2022/11/07 09:56:59;;;;;;;7.55;2.13;;;;;;;;;;4896744;29;20084;-62
2022/11/07 09:59:45;;;;;;;9.05;2.42;;;;;;;;;;4895509;29;20413;-63
2022/11/07 10:02:17;;;;;;;6.40;2.10;;;;;;;;;;4894567;29;20052;-63
2022/11/07 10:04:44;;;;;;;8.48;2.20;;;;;;;;;;4896603;29;20055;-62
2022/11/07 10:07:16;;;;;;;10.05;2.70;;;;;;;;;;4911254;29;20060;-63
2022/11/07 10:09:48;;;;;;;11.70;2.13;;;;;;;;;;4896555;29;20108;-62
2022/11/07 10:12:24;;;;;;;8.73;2.42;;;;;;;;;;4896655;29;20058;-63
2022/11/07 10:15:02;;;;;;;6.22;2.63;;;;;;;;;;4895367;29;20048;-61
2022/11/07 10:17:35;;;;;;;6.05;1.70;;;;;;;;;;4896506;29;20132;-62
2022/11/07 10:20:19;;;;;;;8.73;2.63;;;;;;;;;;4897885;29;20409;-63
2022/11/07 10:22:59;;;;;;;7.72;1.70;;;;;;;;;;4899099;29;20100;-63
2022/11/07 10:25:34;;;;;;;9.57;2.25;;;;;;;;;;4899777;29;20048;-63
2022/11/07 10:28:06;;;;;;;12.15;2.13;;;;;;;;;;4899700;29;20044;-63
2022/11/07 10:30:33;;;;;;;7.35;2.30;;;;;;;;;;4899587;29;20475;-62
2022/11/07 10:32:59;;;;;;;12.57;2.95;;;;;;;;;;4899025;29;20113;-63
2022/11/07 10:35:26;;;;;;;9.95;2.20;;;;;;;;;;4898218;29;20044;-64
2022/11/07 10:37:53;;;;;;;8.95;2.58;;;;;;;;;;4899624;29;20099;-63
2022/11/07 10:40:20;;;;;;;10.60;2.00;;;;;;;;;;4899542;29;20123;-62
2022/11/07 10:42:47;;;;;;;6.72;2.05;;;;;;;;;;4898806;29;20036;-63
2022/11/07 10:45:15;;;;;;;3.20;1.60;;;;;;;;;;4913850;29;20115;-63
2022/11/07 10:47:42;;;;;;;8.25;2.60;;;;;;;;;;4913819;29;20057;-63
2022/11/07 10:50:19;;;;;;;5.43;1.58;;;;;;;;;;4898483;29;20127;-63
2022/11/07 10:52:57;;;;;;;8.38;2.53;;;;;;;;;;4897561;29;20041;-62
2022/11/07 10:55:24;;;;;;;10.70;2.60;;;;;;;;;;4899210;29;20041;-63
2022/11/07 10:57:58;;;;;;;9.63;1.90;;;;;;;;;;4899240;29;20108;-63
2022/11/07 11:00:27;;;;;;;5.70;2.08;;;;;;;;;;4899240;29;20048;-63
2022/11/07 11:02:55;;;;;;;7.18;1.92;;;;;;;;;;4898434;29;20048;-63
2022/11/07 11:05:21;;;;;;;6.00;2.47;;;;;;;;;;4899048;29;20108;-63
2022/11/07 11:07:48;;;;;;;10.38;2.15;;;;;;;;;;4897786;29;20105;-63
2022/11/07 11:10:26;;;;;;;3.90;1.95;;;;;;;;;;4898821;29;20059;-63
2022/11/07 11:12:52;;;;;;;7.80;2.53;;;;;;;;;;4898496;29;20044;-63
2022/11/07 11:15:21;;;;;;;5.63;2.08;;;;;;;;;;4898907;29;20041;-63
2022/11/07 11:17:56;;;;;;;7.80;1.98;;;;;;;;;;4898981;29;20121;-63
2022/11/07 11:20:22;;;;;;;8.18;2.95;;;;;;;;;;4898985;29;20077;-64
2022/11/07 11:22:52;;;;;;;6.72;1.80;;;;;;;;;;4898568;29;20052;-62
2022/11/07 11:25:19;;;;;;;6.68;2.00;;;;;;;;;;4899235;29;20072;-63
2022/11/07 11:27:52;;;;;;;8.85;1.50;;;;;;;;;;4898984;29;20063;-64
2022/11/07 11:30:20;;;;;;;6.75;2.25;;;;;;;;;;4898356;29;20053;-64
2022/11/07 11:32:49;;;;;;;9.98;2.58;;;;;;;;;;4897945;29;20230;-63
2022/11/07 11:35:23;;;;;;;10.63;3.08;;;;;;;;;;4898602;29;20049;-64
2022/11/07 11:37:52;;;;;;;7.38;2.10;;;;;;;;;;4913529;29;20052;-62
2022/11/07 11:40:21;;;;;;;3.63;1.85;;;;;;;;;;4898889;29;20052;-63
2022/11/07 11:42:58;;;;;;;6.78;2.35;;;;;;;;;;4896901;29;20036;-62
2022/11/07 11:45:28;;;;;;;6.13;2.20;;;;;;;;;;4898820;29;20049;-61
2022/11/07 11:48:03;;;;;;;10.85;2.10;;;;;;;;;;4899023;29;20044;-61
2022/11/07 11:50:50;;;;;;;7.30;2.17;;;;;;;;;;4913387;29;20494;-61
2022/11/07 11:53:18;;;;;;;6.10;1.52;;;;;;;;;;4896714;29;20573;-62
2022/11/07 11:55:56;;;;;;;6.10;1.63;;;;;;;;;;4898061;29;20051;-63
2022/11/07 11:58:43;;;;;;;7.90;2.10;;;;;;;;;;4897319;29;20167;-63
2022/11/07 12:01:27;;;;;;;10.35;2.30;;;;;;;;;;4868312;29;20056;-63
2022/11/07 12:03:57;;;;;;;5.97;2.58;;;;;;;;;;4898027;29;20044;-63
2022/11/07 12:06:30;;;;;;;8.32;1.90;;;;;;;;;;4898014;29;20056;-63
2022/11/07 12:09:04;;;;;;;9.38;2.35;;;;;;;;;;4897904;29;20049;-64
2022/11/07 12:11:51;;;;;;;7.65;1.48;;;;;;;;;;4897813;29;20044;-63
2022/11/07 12:14:44;;;;;;;6.95;2.10;;;;;;;;;;4898296;29;20048;-61
2022/11/07 12:17:32;;;;;;;6.97;1.88;;;;;;;;;;4912560;29;20068;-62
2022/11/07 12:19:58;;;;;;;9.60;2.42;;;;;;;;;;4898350;29;20045;-63
2022/11/07 12:22:27;;;;;;;6.32;2.35;;;;;;;;;;4897645;29;20100;-62
2022/11/07 12:24:56;;;;;;;6.68;2.40;;;;;;;;;;4898388;29;20044;-62
2022/11/07 12:27:28;;;;;;;10.35;2.88;;;;;;;;;;4898271;29;20040;-62
2022/11/07 12:29:54;;;;;;;7.25;2.85;;;;;;;;;;4912092;29;20051;-63
2022/11/07 12:32:42;;;;;;;6.13;2.22;;;;;;;;;;4896862;29;20048;-62
2022/11/07 12:35:27;;;;;;;7.70;3.70;;;;;;;;;;4897360;29;20044;-62
2022/11/07 12:38:13;;;;;;;5.00;1.52;;;;;;;;;;4912351;29;20059;-62
2022/11/07 12:40:50;;;;;;;5.90;1.90;;;;;;;;;;4898159;29;20493;-63
2022/11/07 12:43:29;;;;;;;8.02;2.05;;;;;;;;;;4896610;29;20041;-63
2022/11/07 12:46:01;;;;;;;9.07;2.30;;;;;;;;;;4897143;29;20057;-64
2022/11/07 12:48:28;;;;;;;5.32;2.20;;;;;;;;;;4895941;29;20494;-64
2022/11/07 12:51:05;;;;;;;6.72;1.95;;;;;;;;;;4897264;29;20096;-64
2022/11/07 12:53:38;;;;;;;8.68;1.90;;;;;;;;;;4895246;29;20064;-64
2022/11/07 12:56:07;;;;;;;7.05;1.98;;;;;;;;;;4911567;29;20045;-64
2022/11/07 12:58:34;;;;;;;4.85;2.35;;;;;;;;;;4897071;29;20052;-63
2022/11/07 13:01:01;;;;;;;7.95;2.35;;;;;;;;;;4897175;29;20490;-64
2022/11/07 13:03:40;;;;;;;9.15;1.88;;;;;;;;;;4910717;29;20048;-62
2022/11/07 13:06:10;;;;;;;6.00;1.83;;;;;;;;;;4895987;29;20045;-63
2022/11/07 13:08:45;;;;;;;11.88;2.38;;;;;;;;;;4897049;29;20045;-61
2022/11/07 13:11:16;;;;;;;4.50;2.00;;;;;;;;;;4911445;29;20052;-63
2022/11/07 13:13:49;;;;;;;7.70;2.03;;;;;;;;;;4910931;29;20056;-60
2022/11/07 13:16:20;;;;;;;11.07;2.35;;;;;;;;;;4897056;29;20041;-61
2022/11/07 13:18:46;;;;;;;7.43;2.42;;;;;;;;;;4897131;29;20048;-63
2022/11/07 13:21:13;;;;;;;6.82;2.28;;;;;;;;;;4896104;29;20040;-60
2022/11/07 13:23:40;;;;;;;7.25;2.05;;;;;;;;;;4896794;29;20052;-62
2022/11/07 13:26:06;;;;;;;6.10;2.50;;;;;;;;;;4911766;29;20048;-61
2022/11/07 13:29:00;;;;;;;4.82;1.73;;;;;;;;;;4895874;29;20116;-61
2022/11/07 13:31:31;;;;;;;4.35;2.30;;;;;;;;;;4896732;29;20048;-61
2022/11/07 13:34:26;;;;;;;7.30;2.05;;;;;;;;;;4896331;29;20394;-60
2022/11/07 13:36:58;;;;;;;7.70;2.50;;;;;;;;;;4889136;29;20128;-61
2022/11/07 13:39:24;;;;;;;5.38;2.03;;;;;;;;;;4897129;29;20045;-62
2022/11/07 13:41:51;;;;;;;6.45;1.98;;;;;;;;;;4895033;29;20085;-61
2022/11/07 13:44:29;;;;;;;7.05;1.92;;;;;;;;;;4911343;29;20100;-61
2022/11/07 13:46:58;;;;;;;6.03;2.03;;;;;;;;;;4896754;29;20049;-60
2022/11/07 13:49:26;;;;;;;6.68;1.90;;;;;;;;;;4896686;29;20072;-61
2022/11/07 13:51:55;;;;;;;4.55;2.05;;;;;;;;;;4896142;29;20056;-62
2022/11/07 13:54:37;;;;;;;6.70;1.90;;;;;;;;;;4898040;29;20041;-61
2022/11/07 13:57:12;;;;;;;6.18;1.88;;;;;;;;;;4900494;29;20481;-61
2022/11/07 13:59:44;;;;;;;4.78;1.90;;;;;;;;;;4915003;29;20293;-60
2022/11/07 14:02:21;;;;;;;7.32;3.00;;;;;;;;;;4898441;29;20044;-62
2022/11/07 14:04:50;;;;;;;5.40;1.75;;;;;;;;;;4899212;29;20119;-60
2022/11/07 14:07:38;;;;;;;5.07;1.90;;;;;;;;;;4900361;29;20045;-60
2022/11/07 14:10:06;;;;;;;6.85;2.00;;;;;;;;;;4900355;29;20131;-60
2022/11/07 14:12:36;;;;;;;4.75;2.20;;;;;;;;;;4899625;29;20135;-61
2022/11/07 14:15:02;;;;;;;10.10;4.30;;;;;;;;;;4900062;29;20052;-61
2022/11/07 14:17:33;;;;;;;5.68;2.00;;;;;;;;;;4901871;29;20045;-61
2022/11/07 14:20:04;;;;;;;6.05;1.70;;;;;;;;;;4902207;29;20108;-61
2022/11/07 14:22:31;;;;;;;2.53;1.58;;;;;;;;;;4901463;29;20465;-61
2022/11/07 14:24:58;;;;;;;8.95;2.17;;;;;;;;;;4901158;29;20104;-61
2022/11/07 14:27:24;;;;;;;10.57;2.30;;;;;;;;;;4899995;29;20054;-60
2022/11/07 14:29:51;;;;;;;4.70;2.00;;;;;;;;;;4898897;29;20442;-61
2022/11/07 14:32:18;;;;;;;8.90;2.80;;;;;;;;;;4899445;29;20044;-63
2022/11/07 14:34:45;;;;;;;4.20;2.00;;;;;;;;;;4899064;29;20052;-63
2022/11/07 14:37:13;;;;;;;5.50;2.13;;;;;;;;;;4899767;29;20405;-63
2022/11/07 14:39:40;;;;;;;4.93;2.35;;;;;;;;;;4899721;29;20528;-63
2022/11/07 14:42:06;;;;;;;9.80;2.65;;;;;;;;;;4897940;29;20068;-63
2022/11/07 14:44:37;;;;;;;5.80;2.78;;;;;;;;;;4899665;29;20483;-62
2022/11/07 14:47:22;;;;;;;12.82;2.97;;;;;;;;;;4899888;29;20052;-64
2022/11/07 14:49:49;;;;;;;9.35;2.63;;;;;;;;;;4899374;29;20418;-62
2022/11/07 14:52:19;;;;;;;5.47;2.13;;;;;;;;;;4898881;29;20179;-62
2022/11/07 14:54:46;;;;;;;3.95;2.00;;;;;;;;;;4899466;29;20093;-62
2022/11/07 14:57:13;;;;;;;7.05;1.90;;;;;;;;;;4899236;29;20056;-63
2022/11/07 14:59:40;;;;;;;6.57;2.13;;;;;;;;;;4913793;29;20040;-60